Terminal Aerodrome Forecast
Issued by NWS Mt. Holly, NJ

Home | Current Version | Previous Version | Text Only | Print | Product List | Glossary On
Versions: 1 2 3 4 5 6 7 8 9 10 11 12 13 14 15 16 17 18 19 20 21 22 23 24 25
676
FTUS41 KPHI 311720
TAFILG
TAF
KILG 311720Z 3118/0118 06005KT P6SM SCT045
     FM312000 VRB04KT P6SM SCT045
     FM312200 16010KT P6SM FEW250
     FM010000 18008KT P6SM SCT250
     FM010600 VRB02KT 5SM BR BKN250
      TEMPO 0107/0110 2SM BR
     FM011300 09007KT P6SM BKN250=

USA.gov is the U.S. government's official web portal to all federal, state and local government web resources and services.